createdAt,value
2019-05-03T00:00:17.170Z,5.2
2019-05-03T00:05:45.090Z,5.2
2019-05-03T00:11:13.321Z,5.1
2019-05-03T00:16:41.631Z,5.1
2019-05-03T00:22:08.133Z,5.2
2019-05-03T00:27:35.746Z,5.2
2019-05-03T00:33:03.196Z,5.2
2019-05-03T00:38:29.903Z,5.2
2019-05-03T00:43:57.046Z,5.2
2019-05-03T00:49:24.193Z,5.1
2019-05-03T00:54:52.730Z,5.1
2019-05-03T01:00:18.999Z,5.1
2019-05-03T01:05:45.778Z,5
2019-05-03T01:11:13.695Z,5
2019-05-03T01:16:42.675Z,5
2019-05-03T01:22:11.800Z,4.9
2019-05-03T01:27:37.715Z,4.8
2019-05-03T01:33:05.765Z,4.8
2019-05-03T01:38:32.489Z,4.8
2019-05-03T01:43:59.506Z,4.8
2019-05-03T01:49:26.390Z,4.7
2019-05-03T01:54:53.361Z,4.7
2019-05-03T02:00:22.345Z,4.7
2019-05-03T02:05:47.290Z,4.7
2019-05-03T02:11:15.304Z,4.6
2019-05-03T02:16:42.155Z,4.6
2019-05-03T02:22:12.015Z,4.6
2019-05-03T02:27:37.984Z,4.6
2019-05-03T02:33:05.096Z,4.6
2019-05-03T02:38:33.735Z,4.6
2019-05-03T02:43:59.804Z,4.6
2019-05-03T02:49:27.700Z,4.6
2019-05-03T02:54:55.368Z,4.6
2019-05-03T03:00:25.463Z,4.5
2019-05-03T03:11:18.380Z,4.5
2019-05-03T03:16:45.639Z,4.5
2019-05-03T03:22:12.230Z,4.4
2019-05-03T03:27:40.300Z,4.4
2019-05-03T03:33:08.587Z,4.4
2019-05-03T03:38:35.272Z,4.4
2019-05-03T03:44:02.218Z,4.4
2019-05-03T03:49:29.592Z,4.4
2019-05-03T03:54:56.828Z,4.4
2019-05-03T04:00:25.745Z,4.4
2019-05-03T04:05:50.820Z,4.4
2019-05-03T04:11:20.895Z,4.4
2019-05-03T04:16:51.099Z,4.3
2019-05-03T04:22:13.131Z,4.3
2019-05-03T04:27:41.644Z,4.3
2019-05-03T04:33:09.131Z,4.3
2019-05-03T04:38:35.944Z,4.4
2019-05-03T04:49:31.229Z,4.5
2019-05-03T04:54:57.935Z,4.6
2019-05-03T05:00:25.553Z,4.7
2019-05-03T05:05:52.532Z,4.7
2019-05-03T05:11:21.094Z,4.8
2019-05-03T05:16:47.730Z,4.9
2019-05-03T05:22:20.407Z,5
2019-05-03T05:27:49.314Z,5.1
2019-05-03T05:33:10.869Z,5.2
2019-05-03T05:38:38.450Z,5.3
2019-05-03T05:44:05.758Z,5.4
2019-05-03T05:49:35.047Z,5.7
2019-05-03T05:55:01.205Z,6
2019-05-03T06:00:35.893Z,6.1
2019-05-03T06:05:55.645Z,6.2
2019-05-03T06:16:52.835Z,6.4
2019-05-03T06:22:19.695Z,6.4
2019-05-03T06:27:51.622Z,6.5
2019-05-03T06:33:14.883Z,6.6
2019-05-03T06:38:44.597Z,6.7
2019-05-03T06:44:11.364Z,6.8
2019-05-03T06:55:10.428Z,7.2
2019-05-03T07:00:35.653Z,7.3
2019-05-03T07:06:04.756Z,7.4
2019-05-03T07:11:30.971Z,7.3
2019-05-03T07:16:59.202Z,7.2
2019-05-03T07:22:26.534Z,7.2
2019-05-03T07:28:05.066Z,7.2
2019-05-03T07:33:22.301Z,7.1
2019-05-03T07:38:49.535Z,7.2
2019-05-03T07:44:34.717Z,7.3
2019-05-03T07:49:44.907Z,7.4
2019-05-03T07:55:14.926Z,7.6
2019-05-03T08:00:46.230Z,7.8
2019-05-03T08:06:09.549Z,8
2019-05-03T08:11:37.871Z,8.1
2019-05-03T08:17:05.887Z,8.2
2019-05-03T08:22:34.476Z,8.2
2019-05-03T08:28:02.295Z,8
2019-05-03T08:33:27.610Z,7.6
2019-05-03T08:39:07.842Z,7.3
2019-05-03T08:44:29.037Z,7.4
2019-05-03T08:49:49.134Z,7.6
2019-05-03T08:55:17.507Z,7.9
2019-05-03T09:00:45.594Z,8.2
2019-05-03T09:06:15.401Z,8.5
2019-05-03T09:11:41.007Z,8.4
2019-05-03T09:17:08.403Z,8
2019-05-03T09:22:35.311Z,7.9
2019-05-03T09:28:04.830Z,7.9
2019-05-03T09:33:29.712Z,8.2
2019-05-03T09:38:58.922Z,8.4
2019-05-03T09:44:26.972Z,8.5
2019-05-03T09:50:02.163Z,8.5
2019-05-03T09:55:21.229Z,8.4
2019-05-03T10:00:48.975Z,8.3
2019-05-03T10:06:17.596Z,8.4
2019-05-03T10:11:46.525Z,8.7
2019-05-03T10:17:15.217Z,8.9
2019-05-03T10:22:41.211Z,9.1
2019-05-03T10:28:08.425Z,9
2019-05-03T10:39:04.768Z,8.9
2019-05-03T10:44:31.701Z,8.9
2019-05-03T10:49:58.507Z,8.8
2019-05-03T10:55:26.202Z,8.9
2019-05-03T11:00:53.578Z,9
2019-05-03T11:06:21.951Z,9.1
2019-05-03T11:11:49.728Z,9
2019-05-03T11:17:19.389Z,9
2019-05-03T11:22:45.382Z,9.3
2019-05-03T11:28:21.732Z,9.5
2019-05-03T11:33:42.053Z,9.6
2019-05-03T11:39:10.481Z,9.7
2019-05-03T11:44:38.691Z,9.9
2019-05-03T11:50:08.118Z,10
2019-05-03T11:55:38.295Z,9.9
2019-05-03T12:01:12.607Z,9.5
2019-05-03T12:06:30.530Z,9.1
2019-05-03T12:11:57.412Z,9.1
2019-05-03T12:17:28.987Z,9.3
2019-05-03T12:22:53.670Z,9.6
2019-05-03T12:28:21.889Z,9.9
2019-05-03T12:33:50.540Z,10.1
2019-05-03T12:39:26.160Z,10.2
2019-05-03T12:44:46.021Z,10.2
2019-05-03T12:50:15.451Z,10.1
2019-05-03T12:55:44.197Z,10
2019-05-03T13:01:09.063Z,9.9
2019-05-03T13:06:36.364Z,9.8
2019-05-03T13:12:05.549Z,9.9
2019-05-03T13:17:33.131Z,9.9
2019-05-03T13:23:00.918Z,9.9
2019-05-03T13:28:33.677Z,9.8
2019-05-03T13:33:56.143Z,9.8
2019-05-03T13:39:26.458Z,9.8
2019-05-03T13:44:52.195Z,9.6
2019-05-03T13:50:24.539Z,9.5
2019-05-03T13:55:55.073Z,9.5
2019-05-03T14:01:15.190Z,9.5
2019-05-03T14:06:44.662Z,9.4
2019-05-03T14:12:09.753Z,9.5
2019-05-03T14:17:37.110Z,9.6
2019-05-03T14:23:05.489Z,9.7
2019-05-03T14:28:38.256Z,9.7
2019-05-03T14:34:01.478Z,9.4
2019-05-03T14:39:28.402Z,9
2019-05-03T14:44:55.861Z,8.6
2019-05-03T14:50:27.903Z,8.2
2019-05-03T14:55:53.922Z,8.1
2019-05-03T15:01:24.881Z,8.2
2019-05-03T15:06:46.084Z,8.3
2019-05-03T15:12:13.918Z,8.3
2019-05-03T15:17:55.005Z,8.2
2019-05-03T15:23:09.442Z,8
2019-05-03T15:28:37.654Z,7.7
2019-05-03T15:34:06.570Z,7.5
2019-05-03T15:39:31.932Z,7.4
2019-05-03T15:44:58.899Z,7.3
2019-05-03T15:50:26.175Z,7.1
2019-05-03T16:01:24.641Z,7
2019-05-03T16:06:52.527Z,7
2019-05-03T16:12:17.819Z,7.1
2019-05-03T16:17:44.971Z,7.1
2019-05-03T16:23:12.257Z,6.8
2019-05-03T16:28:38.988Z,6.5
2019-05-03T16:34:07.634Z,6.4
2019-05-03T16:39:35.388Z,6.3
2019-05-03T16:45:02.647Z,6.4
2019-05-03T16:50:30.519Z,6.5
2019-05-03T16:56:00.145Z,6.6
2019-05-03T17:01:26.405Z,6.6
2019-05-03T17:06:55.283Z,6.4
2019-05-03T17:12:22.510Z,6.3
2019-05-03T17:17:50.826Z,6.3
2019-05-03T17:23:17.669Z,6.3
2019-05-03T17:28:44.912Z,6.3
2019-05-03T17:34:14.461Z,6.3
2019-05-03T17:39:39.874Z,6.3
2019-05-03T17:45:08.107Z,6.3
2019-05-03T17:50:36.025Z,6.3
2019-05-03T17:56:04.629Z,6.3
2019-05-03T18:01:30.552Z,6.3
2019-05-03T18:06:57.241Z,6.3
2019-05-03T18:17:54.854Z,6.2
2019-05-03T18:23:21.561Z,6.2
2019-05-03T18:28:49.412Z,6.2
2019-05-03T18:34:19.614Z,6.1
2019-05-03T18:39:45.205Z,6
2019-05-03T18:45:10.763Z,5.9
2019-05-03T18:50:38.230Z,5.8
2019-05-03T18:56:05.550Z,5.7
2019-05-03T19:01:32.012Z,5.5
2019-05-03T19:07:04.220Z,5.5
2019-05-03T19:12:28.003Z,5.4
2019-05-03T19:17:55.646Z,5.4
2019-05-03T19:23:24.742Z,5.3
2019-05-03T19:28:51.470Z,5.3
2019-05-03T19:34:18.010Z,5.2
2019-05-03T19:39:44.460Z,5.2
2019-05-03T19:45:12.553Z,5.2
2019-05-03T19:50:59.215Z,5.1
2019-05-03T19:56:07.621Z,5.1
2019-05-03T20:01:36.023Z,5.1
2019-05-03T20:07:05.219Z,5
2019-05-03T20:12:30.426Z,5
2019-05-03T20:18:05.342Z,4.9
2019-05-03T20:23:25.378Z,4.8
2019-05-03T20:28:52.507Z,4.7
2019-05-03T20:34:24.847Z,4.6
2019-05-03T20:39:48.532Z,4.6
2019-05-03T20:45:15.971Z,4.6
2019-05-03T20:50:44.588Z,4.6
2019-05-03T20:56:11.113Z,4.5
2019-05-03T21:01:37.992Z,4.5
2019-05-03T21:07:04.801Z,4.5
2019-05-03T21:13:16.793Z,4.4
2019-05-03T21:17:59.310Z,4.4
2019-05-03T21:23:26.420Z,4.4
2019-05-03T21:28:55.321Z,4.4
2019-05-03T21:34:22.208Z,4.4
2019-05-03T21:39:49.217Z,4.3
2019-05-03T21:45:16.905Z,4.4
2019-05-03T21:50:45.490Z,4.4
2019-05-03T21:56:14.198Z,4.4
2019-05-03T22:01:38.817Z,4.4
2019-05-03T22:07:06.544Z,4.5
2019-05-03T22:12:33.547Z,4.5
2019-05-03T22:18:00.890Z,4.4
2019-05-03T22:23:28.408Z,4.4
2019-05-03T22:28:55.236Z,4.3
2019-05-03T22:34:34.660Z,4.3
2019-05-03T22:39:51.357Z,4.2
2019-05-03T22:45:19.052Z,4.2
2019-05-03T22:50:45.893Z,4.1
2019-05-03T22:56:14.415Z,4.1
2019-05-03T23:01:40.702Z,4.1
2019-05-03T23:07:08.734Z,4.1
2019-05-03T23:12:35.663Z,4
2019-05-03T23:23:31.299Z,3.9
2019-05-03T23:29:01.346Z,3.9
2019-05-03T23:34:26.006Z,4
2019-05-03T23:39:55.105Z,4
2019-05-03T23:45:21.946Z,4.1
2019-05-03T23:50:49.662Z,4.1
2019-05-03T23:56:19.586Z,4.1
